Date,TemperatureHighF,TemperatureAvgF,TemperatureLowF,DewpointHighF,DewpointAvgF,DewpointLowF,HumidityHigh,HumidityAvg,HumidityLow,PressureMaxIn,PressureMinIn,WindSpeedMaxMPH,WindSpeedAvgMPH,GustSpeedMaxMPH,PrecipitationSumIn
2013-1-12,40.1,31.1,21.9,23.0,19.3,8.0,89,62,27,27.34,27.30,9,1,0,0.00
2013-1-13,42.1,28.6,18.2,21.0,11.5,4.0,89,49,21,27.41,27.32,8,1,0,0.00
2013-1-14,46.9,33.2,22.8,21.0,12.6,4.0,67,42,21,27.55,27.36,8,1,0,0.00
2013-1-15,45.6,34.8,24.9,29.0,24.1,18.0,82,64,39,27.65,27.53,8,0,0,0.00
2013-1-16,56.2,40.5,29.9,29.0,24.9,21.0,76,56,26,27.64,27.49,6,0,0,0.00
2013-1-17,63.7,44.7,33.5,31.0,22.1,11.0,73,44,15,27.52,27.44,6,0,0,0.00
2013-1-18,64.6,45.7,32.2,29.0,24.5,16.0,69,46,17,27.51,27.42,6,1,0,0.00
2013-1-19,64.3,46.8,34.9,32.0,24.8,16.0,71,45,18,27.53,27.43,5,1,0,0.00
2013-1-20,63.8,46.3,34.4,33.0,28.5,23.0,79,53,22,27.49,27.39,6,1,0,0.00
2013-1-21,63.7,46.8,35.0,31.0,25.2,16.0,77,44,21,27.44,27.39,7,1,0,0.00
2013-1-22,64.3,48.0,36.5,29.0,23.2,16.0,56,39,18,27.43,27.32,7,1,0,0.00
2013-1-23,60.4,49.4,42.9,45.0,28.9,16.0,97,51,23,27.38,27.28,8,1,0,0.07
2013-1-24,53.3,48.6,44.3,50.0,46.6,43.0,99,93,79,27.45,27.34,4,0,0,0.07
2013-1-25,57.7,51.1,48.4,54.0,50.0,48.0,100,96,81,27.45,27.31,6,0,6,0.17
2013-1-26,49.7,44.8,34.6,49.0,44.1,33.0,100,97,86,27.31,27.19,8,1,10,0.00
2013-1-27,44.3,35.7,29.7,38.0,34.2,31.0,100,94,69,27.35,27.22,8,1,8,0.17
2013-1-28,48.5,36.4,27.9,35.0,30.3,26.0,98,80,48,27.46,27.31,9,1,10,0.00
2013-1-29,53.7,40.9,30.6,39.0,34.3,29.0,96,78,48,27.56,27.45,6,1,10,0.00
2013-1-30,60.4,46.3,37.3,43.0,38.3,33.0,97,75,48,27.57,27.51,8,1,10,0.00
2013-1-31,59.9,48.4,34.1,45.0,39.3,33.0,99,75,39,27.55,27.46,6,1,8,0.00
2013-2-1,65.8,49.0,37.8,41.0,36.2,31.0,95,65,29,27.50,27.42,8,2,9,0.00
2013-2-2,62.0,48.2,39.6,43.0,37.0,29.0,86,68,30,27.56,27.46,6,1,8,0.00
2013-2-3,62.1,46.8,36.0,41.0,34.6,28.0,93,66,30,27.47,27.38,6,1,8,0.00
2013-2-4,63.5,47.5,36.7,41.0,34.3,26.0,89,63,26,27.42,27.32,8,1,11,0.00
2013-2-5,53.1,42.8,34.2,43.0,37.3,31.0,99,82,57,27.35,27.27,9,1,11,0.00
2013-2-6,55.2,40.6,30.1,38.0,31.5,23.0,100,74,32,27.39,27.32,9,2,10,0.00
2013-2-7,39.8,36.9,32.7,39.0,35.2,32.0,100,93,80,27.37,27.18,11,1,11,0.13
2013-2-8,47.9,35.4,27.6,39.0,27.9,21.0,100,76,41,27.18,27.12,7,1,12,0.19
2013-2-9,48.8,36.0,26.1,29.0,24.1,18.0,81,63,30,27.30,27.16,8,1,10,0.00
2013-2-10,57.2,40.6,29.7,32.0,23.7,18.0,79,54,25,27.33,27.26,7,1,10,0.00
2013-2-11,55.8,40.0,29.2,31.0,23.7,16.0,77,54,23,27.45,27.31,8,1,10,0.00
2013-2-12,53.9,39.8,29.2,35.0,30.1,24.0,93,70,43,27.59,27.45,8,1,12,0.00
2013-2-13,57.6,42.8,30.9,40.0,35.5,29.0,99,78,46,27.55,27.46,9,1,11,0.00
2013-2-14,70.0,51.7,39.4,42.0,32.6,23.0,75,52,18,27.50,27.44,8,1,11,0.00
2013-2-15,66.9,50.4,38.3,40.0,30.9,23.0,79,50,22,27.55,27.49,8,1,10,0.00
2013-2-16,64.3,48.9,37.7,39.0,32.8,26.0,86,57,27,27.53,27.31,8,2,12,0.00
2013-2-17,61.3,45.8,34.7,38.0,34.8,31.0,89,68,36,27.31,27.23,10,2,10,0.00
2013-2-18,55.2,42.6,33.8,39.0,35.1,31.0,90,76,49,27.25,27.13,11,3,14,0.00
2013-2-19,36.6,32.3,27.8,35.0,31.6,28.0,100,96,87,27.14,26.94,14,1,16,0.00
2013-2-20,51.7,35.5,25.6,43.0,31.7,26.0,100,87,55,27.23,26.98,6,1,9,0.68
2013-2-21,51.9,38.0,27.8,36.0,29.7,21.0,99,75,29,27.36,27.22,9,1,12,0.01
2013-2-22,55.9,41.6,29.4,37.0,31.1,24.0,88,68,39,27.45,27.35,7,1,9,0.00
2013-2-23,49.4,41.1,31.3,39.0,29.9,18.0,95,65,39,27.42,27.33,10,2,16,0.00
2013-2-24,59.0,41.8,28.8,28.0,20.6,11.0,76,47,16,27.46,27.37,8,1,9,0.00
2013-2-25,56.2,40.9,30.7,32.0,27.9,24.0,81,62,34,27.50,27.41,9,2,12,0.00
2013-2-26,61.7,44.4,31.7,29.0,19.9,11.0,83,42,15,27.46,27.38,10,1,13,0.00
2013-2-27,59.8,45.5,33.7,33.0,23.8,14.0,69,44,23,27.60,27.45,9,2,12,0.00
2013-2-28,64.7,48.9,37.0,40.0,33.8,26.0,84,59,29,27.67,27.58,9,2,11,0.00
2013-3-1,67.8,52.2,38.4,47.0,41.5,36.0,92,70,36,27.67,27.54,8,2,11,0.00
2013-3-2,66.1,53.7,43.6,47.0,39.4,33.0,90,62,31,27.55,27.36,10,1,12,0.00
2013-3-3,52.8,48.4,41.5,47.5,44.0,40.0,97,85,71,27.37,27.30,4,0,7,0.05
2013-3-4,60.1,47.3,35.7,45.0,40.5,36.0,100,80,45,27.37,27.28,10,2,12,0.01
2013-3-5,50.9,44.9,40.9,44.0,40.0,36.0,97,84,60,27.28,27.09,9,1,12,0.02
2013-3-6,42.9,38.1,33.2,40.0,37.1,33.0,99,95,87,27.28,27.07,20,3,20,0.77
2013-3-7,48.6,39.1,31.8,39.0,35.3,32.0,100,87,55,27.23,27.10,8,1,9,0.00
2013-3-8,56.6,42.3,31.2,40.0,34.7,28.0,98,77,36,27.26,27.05,8,2,12,0.02
2013-3-9,62.2,46.1,32.0,41.0,31.7,23.0,98,62,22,27.55,27.25,11,1,12,0.00
2013-3-10,61.2,46.7,34.4,43.0,31.7,18.0,95,58,24,27.57,27.51,11,1,11,0.00
2013-3-11,64.2,49.7,36.2,47.0,40.5,36.0,99,74,42,27.52,27.40,10,2,12,0.00
2013-3-12,69.5,55.8,39.9,48.0,44.5,39.0,96,69,42,27.45,27.38,7,1,10,0.00
2013-3-13,72.8,57.7,44.4,47.5,40.9,32.0,92,59,25,27.48,27.42,8,2,11,0.00
2013-3-14,71.8,58.4,48.4,46.0,40.3,33.0,78,53,29,27.46,27.40,10,2,12,0.00
2013-3-15,72.3,55.5,44.9,47.0,41.5,31.0,85,63,23,27.41,27.33,8,1,8,0.00
2013-3-16,68.0,52.8,40.6,44.0,37.6,26.0,91,61,23,27.36,27.29,8,2,10,0.00
2013-3-17,63.2,49.2,36.9,40.0,33.9,29.0,85,58,29,27.38,27.30,9,2,12,0.00
2013-3-18,66.3,51.0,37.4,40.0,33.9,26.0,80,56,24,27.38,27.29,11,2,11,0.00
2013-3-19,61.4,51.6,43.0,48.0,40.3,32.0,96,68,36,27.40,27.33,13,2,14,0.18
2013-3-20,48.3,46.9,44.7,48.0,46.7,44.0,100,99,97,27.38,27.33,13,2,21,1.86
2013-3-21,58.4,49.0,39.6,50.0,43.8,38.0,100,83,62,27.35,27.26,10,2,12,0.01
2013-3-22,56.8,49.3,38.9,39.0,26.1,16.0,94,41,29,27.31,27.27,14,2,15,0.00
2013-3-23,36.4,34.9,33.3,23.0,18.4,16.0,61,50,44,27.32,27.29,4,2,5,0.00
2013-3-24,65.6,55.9,39.3,39.0,35.1,31.0,75,48,29,27.35,27.26,10,2,10,0.00
2013-3-25,63.9,51.4,40.2,42.0,38.0,33.0,85,62,35,27.28,27.20,12,2,17,0.00
2013-3-26,60.9,50.6,40.2,44.0,39.9,38.0,93,69,44,27.26,27.20,12,1,12,0.00
2013-3-27,62.9,51.3,41.4,48.0,42.8,38.0,91,75,48,27.29,27.20,14,2,15,0.00
2013-3-28,56.0,49.2,44.2,50.5,45.5,43.0,96,87,71,27.39,27.28,6,1,8,0.03
2013-3-29,69.3,55.4,41.6,48.0,41.9,38.0,97,65,34,27.40,27.34,12,2,12,0.01
2013-3-30,70.5,57.1,46.5,51.0,44.4,39.0,92,66,38,27.37,27.27,10,2,12,0.01
2013-3-31,54.9,49.3,44.6,50.0,45.9,41.0,98,88,67,27.37,27.28,10,1,15,0.58
2013-4-1,56.5,47.8,42.0,49.0,44.7,41.0,100,90,63,27.42,27.32,8,1,12,0.03
2013-4-2,63.6,50.2,37.6,47.5,43.2,38.0,100,80,49,27.42,27.36,7,1,11,0.00
2013-4-3,68.7,54.2,43.2,53.0,47.5,42.0,99,81,44,27.42,27.30,10,2,15,0.00
2013-4-4,51.4,49.2,43.6,51.0,48.6,42.0,100,98,84,27.38,27.27,8,2,13,0.85
2013-4-5,56.4,50.7,46.9,50.5,47.9,45.0,100,91,72,27.42,27.36,9,1,11,0.02
2013-4-6,58.1,50.2,46.4,48.0,46.6,45.0,98,88,67,27.44,27.38,11,1,12,0.00
2013-4-7,58.2,50.3,41.1,48.0,45.6,40.0,98,84,65,27.37,27.03,12,3,16,0.15
2013-4-8,58.3,46.7,37.9,44.0,34.6,26.0,100,68,30,27.27,26.99,11,1,16,0.45
2013-4-9,67.3,52.3,38.1,32.0,26.5,16.0,74,40,15,27.41,27.26,18,1,18,0.00
2013-4-10,76.5,59.7,44.1,46.0,39.0,28.0,71,48,30,27.48,27.30,10,1,13,0.00
2013-4-11,68.0,57.2,45.8,51.0,42.8,36.0,94,62,32,27.30,27.14,9,1,13,0.00
2013-4-12,72.6,57.1,44.6,44.0,36.0,29.0,67,47,24,27.20,27.13,11,2,13,0.00
2013-4-13,69.8,56.5,45.5,46.0,39.2,35.0,75,55,30,27.19,27.12,10,2,11,0.00
2013-4-14,62.5,52.0,40.7,40.0,34.7,23.0,78,54,22,27.16,27.05,9,2,13,0.00
2013-4-15,51.2,44.4,36.2,41.0,34.6,24.0,95,70,37,27.13,27.06,12,2,13,0.00
2013-4-16,56.9,43.8,33.8,33.0,24.8,16.0,91,51,20,27.38,27.13,10,1,17,0.00
2013-4-17,61.7,47.6,33.3,28.0,20.6,14.0,73,37,16,27.50,27.38,9,1,14,0.00
2013-4-18,64.0,51.2,36.1,36.0,28.6,21.0,67,43,21,27.52,27.45,10,2,12,0.00
2013-4-19,69.5,55.5,42.5,43.0,37.9,33.0,76,54,32,27.52,27.39,10,2,12,0.00
2013-4-20,73.3,58.5,45.3,44.0,38.1,26.0,82,51,20,27.40,27.30,7,2,12,0.00
2013-4-21,76.0,60.8,46.0,46.0,39.3,33.0,75,49,23,27.35,27.30,9,2,11,0.00
2013-4-22,79.2,63.5,47.9,47.5,37.8,26.0,76,43,16,27.32,27.21,12,2,13,0.00
2013-4-23,74.9,62.5,51.1,36.0,26.3,16.0,52,26,14,27.26,27.19,10,2,12,0.00
2013-4-24,76.5,62.0,46.8,37.0,25.3,16.0,65,29,10,27.21,27.13,11,2,16,0.00
2013-4-25,68.3,57.5,44.4,46.0,35.8,21.0,84,46,22,27.38,27.18,10,1,12,0.00
2013-4-26,75.4,59.4,45.1,50.5,46.2,41.0,90,65,34,27.49,27.38,10,2,12,0.00
2013-4-27,79.5,63.4,49.7,53.5,46.3,40.0,90,58,26,27.51,27.39,9,1,10,0.00
2013-4-28,79.8,64.7,49.0,48.0,43.7,38.0,71,49,26,27.39,27.25,8,2,10,0.00
2013-4-29,78.3,65.7,52.6,54.0,46.9,41.0,82,54,28,27.25,27.12,7,1,10,0.00
2013-4-30,75.3,63.3,50.2,50.0,38.5,11.0,80,46,12,27.22,27.08,9,2,11,0.00
2013-5-1,80.1,67.4,53.4,33.0,13.3,4.0,35,12,6,27.46,27.22,17,2,17,0.00
2013-5-2,80.4,65.9,51.8,38.0,28.9,11.0,52,26,14,27.50,27.43,9,2,11,0.00
2013-5-3,80.1,65.8,50.9,46.0,40.1,35.0,60,41,23,27.44,27.17,8,2,11,0.00
2013-5-4,77.4,68.2,58.6,40.0,31.4,21.0,37,26,16,27.18,26.93,8,2,14,0.00
2013-5-5,64.6,56.2,49.0,47.5,41.3,32.0,81,58,37,27.13,26.91,11,2,12,0.00
2013-5-6,59.7,52.0,47.7,50.5,47.2,44.0,97,84,64,27.24,27.13,6,0,7,0.55
2013-5-7,53.5,51.0,48.8,52.0,50.0,47.5,99,97,93,27.32,27.24,6,1,6,0.39
2013-5-8,61.6,54.7,50.7,54.5,52.0,50.0,100,91,73,27.40,27.31,6,0,7,0.04
2013-5-9,71.6,59.1,46.9,56.0,52.2,47.0,100,80,52,27.44,27.36,11,1,11,0.00
2013-5-10,80.3,65.4,51.9,61.5,56.0,51.0,99,75,43,27.46,27.40,8,1,10,0.00
2013-5-11,81.4,68.9,54.6,62.0,56.6,53.5,96,69,41,27.45,27.41,9,2,11,0.00
2013-5-12,82.8,69.8,57.3,57.5,49.2,39.0,90,54,22,27.47,27.37,10,2,13,0.00
2013-5-13,83.2,69.0,54.6,53.0,40.9,29.0,66,41,15,27.41,27.29,11,2,15,0.00
2013-5-14,81.5,68.1,54.4,54.0,47.4,37.0,76,50,26,27.29,27.22,10,2,11,0.00
2013-5-15,70.4,61.5,52.0,52.0,47.1,41.0,88,62,37,27.32,27.24,13,2,17,0.00
2013-5-16,61.4,55.5,50.9,50.0,46.9,44.0,87,73,56,27.29,27.23,13,2,15,0.01
2013-5-17,64.0,53.1,43.2,47.5,42.3,38.0,97,70,44,27.34,27.21,14,2,16,0.00
2013-5-18,70.3,57.2,43.0,47.0,41.9,37.0,86,60,31,27.40,27.32,7,2,10,0.00
2013-5-19,73.3,61.4,45.6,47.5,41.1,31.0,86,51,28,27.41,27.31,10,2,13,0.00
2013-5-20,78.8,66.3,52.1,43.0,35.7,28.0,62,34,18,27.35,27.27,9,1,13,0.00
2013-5-21,70.8,60.7,49.3,45.0,38.1,26.0,69,45,19,27.28,27.17,13,3,16,0.00
2013-5-22,60.8,48.1,34.4,39.0,29.1,18.0,94,52,21,27.21,27.15,8,1,12,0.00
2013-5-23,62.4,49.3,34.6,37.0,30.9,24.0,75,51,33,27.28,27.13,14,2,14,0.00
2013-5-24,68.8,54.5,39.1,41.0,36.0,33.0,80,53,29,27.27,27.22,9,2,12,0.00
2013-5-25,67.7,56.0,42.4,41.0,37.2,32.0,78,53,28,27.29,27.22,13,2,14,0.00
2013-5-26,65.5,53.7,41.9,47.0,41.8,38.0,89,66,41,27.38,27.27,15,2,17,0.00
2013-5-27,57.1,51.4,44.6,50.0,46.7,41.0,97,84,68,27.37,27.27,11,2,11,0.11
2013-5-28,66.5,55.8,49.4,54.0,50.4,48.0,99,83,53,27.28,27.22,11,1,11,0.08
2013-5-29,68.6,57.7,50.5,54.5,49.7,44.0,97,77,50,27.25,27.18,10,2,12,0.05
2013-5-30,73.7,60.3,45.1,50.0,43.8,39.0,92,59,29,27.32,27.22,9,2,10,0.00
2013-5-31,82.6,66.7,48.0,47.0,42.4,37.0,77,45,23,27.32,27.27,9,2,11,0.00
2013-6-1,84.7,71.0,56.9,55.0,42.8,31.0,64,38,20,27.28,27.17,10,2,10,0.00
2013-6-2,85.8,71.9,56.3,53.0,46.3,40.0,68,43,21,27.17,27.05,12,2,15,0.00
2013-6-3,87.1,73.4,58.3,55.0,48.4,41.0,64,44,23,27.17,27.06,8,2,10,0.00
2013-6-4,80.0,69.5,57.5,59.0,54.0,50.0,81,60,39,27.24,27.14,10,2,12,0.00
2013-6-5,84.2,70.3,56.8,61.5,56.7,53.5,91,65,41,27.29,27.22,10,2,12,0.00
2013-6-6,87.0,73.4,59.2,63.5,59.1,54.5,88,64,38,27.26,27.20,9,1,10,0.00
2013-6-7,96.8,78.0,59.9,62.0,53.5,42.0,84,49,16,27.24,27.16,6,1,7,0.00
2013-6-8,97.5,83.3,67.6,67.0,55.2,47.0,60,40,23,27.17,27.10,7,2,9,0.00
2013-6-9,84.8,73.9,62.1,63.0,55.7,50.0,77,54,40,27.18,27.10,10,2,14,0.00
2013-6-10,63.4,59.1,53.1,53.0,50.3,47.0,92,73,59,27.27,27.11,10,2,11,0.00
2013-6-11,75.7,63.5,50.1,53.0,49.8,47.0,93,65,38,27.31,27.23,12,2,15,0.00
2013-6-12,76.4,64.0,51.6,54.0,44.0,31.0,87,54,22,27.28,27.22,14,2,15,0.00
2013-6-13,74.2,61.2,48.2,47.0,37.5,31.0,68,44,22,27.38,27.26,10,2,11,0.00
2013-6-14,79.6,65.7,51.4,48.0,39.2,29.0,62,39,24,27.33,27.18,10,1,11,0.00
2013-6-15,80.1,66.3,51.4,50.5,39.3,26.0,72,42,14,27.30,27.17,13,2,15,0.00
2013-6-16,81.4,66.8,52.4,47.0,39.6,35.0,63,39,20,27.38,27.28,10,2,10,0.00
2013-6-17,78.2,66.1,53.2,48.0,43.5,39.0,72,47,27,27.38,27.29,15,2,15,0.00
2013-6-18,67.6,58.3,46.9,48.0,44.2,39.0,89,62,38,27.30,27.22,13,2,16,0.00
2013-6-19,68.0,55.3,42.0,46.0,39.1,32.0,94,59,29,27.33,27.24,13,2,17,0.00
2013-6-20,73.0,59.8,43.9,46.0,37.8,31.0,78,48,25,27.31,27.26,11,2,12,0.00
2013-6-21,78.0,64.5,48.8,49.0,40.6,35.0,72,44,26,27.29,27.25,11,2,11,0.00
2013-6-22,82.0,68.1,52.7,50.5,40.6,33.0,66,40,21,27.27,27.19,11,1,13,0.00
2013-6-23,67.3,60.6,54.5,56.0,48.0,38.0,90,64,47,27.19,27.11,11,2,13,0.00
2013-6-24,58.0,54.7,52.9,55.0,53.5,52.0,99,95,90,27.24,27.10,10,2,12,0.96
2013-6-25,62.5,58.3,52.9,62.0,58.2,53.0,100,100,97,27.33,27.22,15,2,15,1.52
2013-6-26,78.2,67.7,59.6,66.7,61.6,58.0,100,83,52,27.40,27.32,11,1,12,0.00
2013-6-27,87.7,72.0,58.3,66.3,60.3,54.5,99,71,36,27.44,27.39,10,2,11,0.00
2013-6-28,92.1,75.7,60.9,67.0,55.3,44.0,91,55,20,27.42,27.31,9,2,12,0.00
2013-6-29,96.8,79.3,63.4,64.0,55.6,49.0,75,47,23,27.34,27.22,8,2,8,0.00
2013-6-30,96.6,79.4,65.4,63.5,55.7,50.5,70,47,23,27.25,27.18,8,2,9,0.00
2013-7-1,97.5,81.6,66.4,65.0,57.5,51.0,73,46,23,27.27,27.19,6,2,8,0.00
2013-7-2,95.2,83.0,72.0,70.0,61.1,51.0,71,49,32,27.30,27.22,10,2,11,0.02
2013-7-3,96.9,81.6,68.1,70.5,61.7,54.5,73,53,31,27.29,27.18,8,1,10,0.00
2013-7-4,95.3,80.9,71.1,71.3,60.0,52.0,75,51,26,27.19,27.08,8,2,8,0.00
2013-7-5,85.1,74.9,61.9,62.0,49.8,40.0,70,44,23,27.12,27.05,13,2,16,0.00
2013-7-6,84.8,70.5,56.9,56.0,48.2,41.0,72,48,24,27.15,27.09,12,2,17,0.00
2013-7-7,86.5,72.5,58.6,53.0,47.1,39.0,65,44,24,27.22,27.14,10,2,11,0.00
2013-7-8,86.1,72.5,59.4,55.0,48.0,40.0,70,45,21,27.34,27.21,10,2,17,0.00
2013-7-9,90.6,74.5,59.4,57.0,43.7,36.0,64,37,15,27.41,27.33,10,2,13,0.00
2013-7-10,88.8,75.6,62.4,50.5,42.9,37.0,53,33,19,27.35,27.25,12,2,13,0.00
2013-7-11,84.6,70.8,57.8,57.0,41.0,33.0,70,38,17,27.28,27.21,10,2,13,0.00
2013-7-12,83.1,69.0,54.6,53.0,39.2,24.0,67,37,13,27.27,27.23,12,2,14,0.00
2013-7-13,86.0,71.2,56.1,47.5,41.6,35.0,59,37,17,27.32,27.25,10,2,13,0.00
2013-7-14,87.6,73.8,59.7,55.0,45.9,41.0,57,39,21,27.33,27.25,10,2,11,0.00
2013-7-15,84.6,71.6,59.7,54.0,48.0,44.0,65,45,26,27.26,27.16,12,2,12,0.00
2013-7-16,79.2,67.9,56.3,55.0,44.0,36.0,77,46,22,27.34,27.17,9,2,9,0.00
2013-7-17,83.8,69.2,54.2,53.0,43.0,36.0,71,42,19,27.40,27.33,9,2,9,0.00
2013-7-18,88.1,72.0,55.9,55.0,43.5,39.0,72,40,20,27.39,27.30,8,2,9,0.00
2013-7-19,92.2,75.0,59.5,55.0,46.8,38.0,72,39,18,27.31,27.20,9,2,9,0.00
2013-7-20,93.9,77.5,63.0,63.0,53.0,47.0,65,45,25,27.23,27.12,8,2,8,0.00
2013-7-21,92.6,78.0,65.0,63.0,54.9,47.0,72,48,28,27.26,27.15,9,2,9,0.00
2013-7-22,85.7,73.4,62.3,56.0,47.0,40.0,65,40,23,27.35,27.24,9,2,9,0.00
2013-7-23,84.8,73.3,63.4,61.0,48.9,42.0,71,44,27,27.35,27.26,9,2,9,0.00
2013-7-24,88.9,75.5,62.6,58.0,53.6,50.0,73,49,29,27.34,27.28,8,2,9,0.00
2013-7-25,90.5,77.7,64.4,63.0,57.2,54.0,80,52,32,27.37,27.29,9,2,9,0.00
2013-7-26,91.6,78.5,67.7,64.0,56.4,51.0,78,50,28,27.42,27.34,8,2,9,0.00
2013-7-27,87.8,76.2,64.6,61.0,53.6,49.0,68,48,29,27.37,27.21,9,2,9,0.00
2013-7-28,87.0,74.5,62.5,59.0,51.3,47.0,67,47,26,27.24,27.15,9,2,9,0.00
2013-7-29,81.7,70.4,58.7,58.0,46.0,33.0,72,45,19,27.33,27.17,9,2,9,0.00
2013-7-30,85.1,70.2,56.1,53.0,44.0,40.0,63,42,23,27.41,27.32,9,2,9,0.00
2013-7-31,84.3,70.8,59.6,53.0,43.3,38.0,62,40,23,27.39,27.31,9,2,9,0.00
2013-8-1,79.3,65.9,53.4,48.0,39.8,33.0,64,41,23,27.36,27.29,13,2,17,0.00
2013-8-2,82.8,67.3,51.2,47.0,40.5,35.0,60,41,19,27.31,27.24,10,2,11,0.00
2013-8-3,83.7,69.2,54.1,48.0,43.5,38.0,68,43,21,27.30,27.25,10,2,13,0.00
2013-8-4,83.6,70.3,57.1,54.0,44.7,38.0,67,43,21,27.33,27.27,15,2,15,0.00
2013-8-5,83.2,69.5,55.7,53.0,45.0,42.0,64,44,25,27.34,27.28,9,2,11,0.00
2013-8-6,83.1,69.0,55.2,54.0,45.4,39.0,70,46,24,27.34,27.28,11,2,12,0.00
2013-8-7,75.5,65.4,54.5,52.0,46.9,39.0,80,54,28,27.38,27.32,11,2,15,0.00
2013-8-8,75.8,62.5,50.0,54.0,46.6,41.0,88,60,31,27.35,27.26,10,2,15,0.00
2013-8-9,76.8,63.8,51.8,51.0,46.2,43.0,80,56,33,27.30,27.22,11,2,16,0.00
2013-8-10,78.3,64.8,51.2,53.0,46.0,40.0,82,55,26,27.35,27.29,10,2,13,0.00
2013-8-11,80.8,67.0,53.5,52.0,46.3,42.0,76,51,27,27.35,27.28,10,2,13,0.00
2013-8-12,81.7,68.0,55.0,55.0,46.0,42.0,70,48,27,27.34,27.28,10,2,15,0.00
2013-8-13,87.3,70.6,54.8,53.0,43.9,38.0,67,42,20,27.34,27.29,9,2,9,0.00
2013-8-14,86.9,71.6,57.6,54.0,42.5,36.0,63,38,17,27.32,27.26,9,2,10,0.00
2013-8-15,87.6,72.3,58.1,52.0,42.9,35.0,62,38,16,27.33,27.27,11,2,14,0.00
2013-8-16,89.3,72.5,56.8,53.0,43.0,29.0,65,40,12,27.36,27.30,11,2,13,0.00
2013-8-17,91.3,73.9,58.2,54.0,45.9,35.0,67,42,14,27.34,27.23,11,2,12,0.00
2013-8-18,90.8,75.0,60.0,59.0,50.8,46.0,67,45,23,27.28,27.19,10,2,12,0.00
2013-8-19,86.7,75.7,67.8,64.0,55.2,50.0,65,50,35,27.32,27.22,4,1,4,0.00
2013-8-20,90.0,77.3,64.4,69.0,56.9,52.0,91,52,29,27.26,27.19,9,1,10,0.03
2013-8-21,84.3,73.3,62.6,65.0,54.6,48.0,85,56,32,27.27,27.21,11,1,12,0.00
2013-8-22,84.5,71.4,59.2,57.0,47.2,41.0,76,46,23,27.29,27.22,9,2,15,0.00
2013-8-23,81.9,67.9,54.9,53.0,44.4,41.0,71,45,24,27.25,27.16,10,2,14,0.00
2013-8-24,80.1,67.0,54.7,52.0,45.5,42.0,68,48,29,27.23,27.17,14,3,17,0.00
2013-8-25,77.2,64.3,53.6,59.0,50.3,46.0,84,63,36,27.30,27.22,11,2,13,0.01
2013-8-26,79.5,65.5,53.2,57.0,51.1,47.0,93,64,34,27.33,27.26,11,1,14,0.00
2013-8-27,84.3,69.8,55.1,54.0,47.5,41.0,80,49,24,27.28,27.18,11,2,14,0.00
2013-8-28,83.7,70.3,57.2,55.0,47.2,39.0,73,47,25,27.30,27.19,13,2,15,0.00
2013-8-29,84.0,69.5,56.4,54.0,47.0,42.0,75,48,24,27.39,27.29,10,2,13,0.00
2013-8-30,88.0,71.4,55.4,54.0,45.4,38.0,73,44,19,27.40,27.31,10,2,10,0.00
2013-8-31,87.9,72.5,58.2,55.0,45.9,40.0,69,42,20,27.34,27.26,12,2,15,0.00
2013-9-1,83.2,71.0,59.5,60.0,50.2,43.0,77,51,26,27.30,27.23,9,2,11,0.01
2013-9-2,68.3,63.2,60.3,64.0,58.6,50.0,100,88,52,27.32,27.24,4,1,4,0.18
2013-9-3,76.8,66.3,58.9,64.0,59.1,55.0,100,81,51,27.33,27.26,10,1,10,0.00
2013-9-4,80.0,67.6,56.1,65.0,55.7,53.0,98,70,41,27.36,27.29,9,2,12,0.00
2013-9-5,74.2,63.1,55.1,48.0,46.0,41.0,70,56,31,27.35,27.29,6,2,7,0.00
2013-9-6,85.0,67.7,50.6,49.0,44.9,40.0,78,48,23,27.34,27.24,10,2,12,0.00
2013-9-7,86.8,71.2,56.9,58.0,47.8,43.0,72,47,25,27.29,27.22,9,2,13,0.00
2013-9-8,90.3,72.9,58.5,55.0,45.8,40.0,67,41,19,27.26,27.18,8,2,9,0.00
2013-9-9,91.8,74.6,59.6,60.0,47.3,42.0,56,41,20,27.20,27.10,9,2,10,0.00
2013-9-10,87.8,74.1,62.6,54.0,46.4,35.0,72,40,23,27.24,27.13,10,2,11,0.00
2013-9-11,80.8,67.9,58.4,59.0,51.9,45.0,82,59,30,27.32,27.23,9,2,13,0.00
2013-9-12,80.7,67.8,54.9,58.0,51.8,47.0,87,60,33,27.32,27.24,10,1,12,0.00
2013-9-13,84.5,70.9,58.1,59.0,55.4,51.0,82,60,38,27.26,27.13,8,2,11,0.00
2013-9-14,85.6,71.6,60.1,63.0,56.0,53.0,88,62,36,27.17,27.10,9,2,10,0.00
2013-9-15,80.6,67.2,55.1,56.0,44.1,29.0,81,49,16,27.20,27.11,14,2,15,0.00
2013-9-16,79.8,65.0,51.6,51.0,44.4,38.0,73,51,26,27.24,27.15,12,2,12,0.00
2013-9-17,69.6,60.5,51.7,50.0,47.2,42.0,83,63,40,27.23,27.11,14,2,20,0.00
2013-9-18,79.0,61.9,48.4,48.0,42.4,37.0,85,53,25,27.24,27.18,9,2,13,0.00
2013-9-19,82.2,65.7,51.2,49.0,39.6,35.0,64,41,20,27.23,27.15,11,2,13,0.00
2013-9-20,76.3,63.8,53.5,54.0,41.6,29.0,87,49,18,27.19,27.12,15,3,17,0.00
2013-9-21,57.4,51.8,45.7,54.0,50.2,45.0,99,94,81,27.20,27.13,9,2,12,0.63
2013-9-22,64.3,52.0,41.0,50.0,46.1,41.0,100,83,51,27.32,27.19,8,1,9,0.00
2013-9-23,74.1,58.7,45.1,55.0,48.8,44.0,98,74,42,27.34,27.29,7,2,10,0.00
2013-9-24,68.5,58.5,50.8,52.0,48.3,42.0,92,71,46,27.30,27.17,15,2,18,0.00
2013-9-25,61.3,51.7,42.2,49.0,40.5,32.0,97,68,38,27.21,27.12,10,1,13,0.00
2013-9-26,66.8,53.3,41.7,37.0,32.5,29.0,78,47,27,27.31,27.11,10,1,14,0.00
2013-9-27,68.8,54.2,42.8,40.0,35.0,31.0,71,51,28,27.40,27.30,9,2,11,0.00
2013-9-28,73.4,58.0,45.4,44.0,37.9,33.0,78,51,25,27.43,27.35,12,2,12,0.00
2013-9-29,67.9,58.5,49.6,53.0,45.3,36.0,89,63,45,27.42,27.36,16,2,16,0.00
2013-9-30,66.8,57.7,52.1,56.0,53.3,51.0,97,86,64,27.40,27.29,10,2,13,0.02
2013-10-1,69.8,57.6,48.0,58.0,49.7,47.0,100,78,48,27.32,27.26,10,1,11,0.00
2013-10-2,67.8,55.4,46.9,53.0,42.4,35.0,96,66,31,27.31,27.24,12,2,15,0.00
2013-10-3,67.9,54.5,39.1,40.0,29.1,14.0,82,44,13,27.37,27.26,11,2,14,0.00
2013-10-4,73.8,59.6,45.8,31.0,21.1,16.0,45,23,13,27.46,27.34,12,1,12,0.00
2013-10-5,75.8,59.0,45.7,37.0,25.1,18.0,47,28,14,27.54,27.46,11,2,11,0.00
2013-10-6,77.7,60.5,46.8,39.0,28.8,18.0,56,33,11,27.49,27.37,9,2,10,0.00
2013-10-7,77.1,60.7,47.2,38.0,27.6,21.0,44,30,14,27.38,27.24,9,2,11,0.00
2013-10-8,69.9,55.8,44.8,37.0,31.4,26.0,65,41,21,27.24,27.00,8,2,10,0.00
2013-10-9,66.5,53.7,44.7,47.0,35.8,32.0,75,52,31,27.07,26.90,10,2,10,0.01
2013-10-10,61.7,50.0,40.6,43.0,39.1,33.0,84,68,46,27.32,27.07,11,2,14,0.00
2013-10-11,67.9,52.8,41.5,48.0,40.3,38.0,92,66,38,27.37,27.30,8,2,10,0.00
2013-10-12,66.8,52.7,41.9,45.0,38.5,36.0,87,61,37,27.31,27.20,13,2,13,0.03
2013-10-13,65.6,52.0,40.7,48.0,40.7,36.0,97,70,36,27.37,27.20,10,2,10,0.01
2013-10-14,69.8,54.2,41.8,39.0,34.6,29.0,68,49,27,27.44,27.35,8,2,9,0.00
2013-10-15,75.2,57.6,45.1,35.0,27.7,21.0,60,34,13,27.38,27.31,10,2,13,0.00
2013-10-16,72.7,57.2,44.3,36.0,28.8,18.0,55,34,23,27.45,27.34,12,2,14,0.00
2013-10-17,74.3,57.1,43.7,37.0,32.8,28.0,64,43,19,27.42,27.32,7,2,11,0.00
2013-10-18,74.2,59.1,47.4,42.0,32.5,24.0,58,38,21,27.39,27.32,10,2,14,0.00
2013-10-19,77.1,60.0,47.8,41.0,33.3,29.0,56,39,18,27.43,27.37,8,2,9,0.00
2013-10-20,79.3,60.2,46.9,44.0,36.5,32.0,60,44,21,27.39,27.27,7,1,8,0.00
2013-10-21,76.7,60.2,47.1,46.0,38.1,33.0,68,47,23,27.34,27.28,9,1,10,0.00
2013-10-22,80.3,62.3,50.0,42.0,29.8,18.0,55,32,10,27.37,27.29,7,2,10,0.00
2013-10-23,80.9,61.8,48.2,39.0,26.8,21.0,41,28,12,27.31,27.23,8,1,8,0.00
2013-10-24,78.7,60.0,47.2,39.0,30.0,24.0,45,33,16,27.39,27.28,7,2,7,0.00
2013-10-25,77.9,59.0,46.4,38.0,31.1,24.0,54,37,16,27.48,27.39,6,2,7,0.00
2013-10-26,76.0,58.6,45.4,41.0,33.9,29.0,58,42,19,27.48,27.36,7,1,8,0.00
2013-10-27,70.2,54.6,40.3,40.0,33.1,28.0,93,48,23,27.36,26.89,16,3,17,0.19
2013-10-28,45.0,42.3,37.8,43.0,40.8,37.0,98,95,87,27.15,26.89,7,1,8,0.08
2013-10-29,47.2,43.5,37.8,45.0,41.9,38.0,99,94,86,27.32,27.14,6,1,7,0.07
2013-10-30,57.5,44.1,33.7,49.0,38.6,35.0,100,83,50,27.42,27.30,8,1,8,0.01
2013-10-31,64.3,48.4,36.0,44.0,39.9,33.0,96,76,43,27.47,27.38,8,1,9,0.00
2013-11-1,72.5,53.8,41.3,44.0,37.4,33.0,92,59,25,27.49,27.36,7,2,8,0.00
2013-11-2,68.6,53.1,42.5,44.0,37.4,31.0,86,58,31,27.37,27.22,9,2,11,0.00
2013-11-3,58.6,47.2,37.5,47.0,36.8,28.0,98,69,37,27.29,27.16,6,1,7,0.01
2013-11-4,62.4,47.4,35.6,31.0,25.0,18.0,78,45,20,27.36,27.14,9,1,12,0.00
2013-11-5,65.7,48.9,36.7,35.0,27.8,21.0,66,45,24,27.52,27.34,8,1,8,0.00
2013-11-6,64.1,51.0,39.3,39.0,34.7,31.0,75,55,31,27.57,27.50,8,1,10,0.00
2013-11-7,68.2,54.3,45.5,42.0,31.7,24.0,63,45,19,27.51,27.39,10,2,13,0.00
2013-11-8,69.4,53.3,42.8,37.0,32.0,23.0,67,46,27,27.41,27.29,7,2,8,0.00
2013-11-9,70.7,53.7,42.5,44.0,36.5,33.0,73,54,29,27.37,27.31,10,2,10,0.00
2013-11-10,70.1,54.7,45.5,40.0,31.4,24.0,64,44,18,27.43,27.36,11,2,14,0.00
2013-11-11,69.8,55.1,45.1,37.0,27.0,21.0,47,35,17,27.51,27.40,8,2,8,0.00
2013-11-12,69.1,56.8,47.3,40.0,33.6,26.0,63,42,26,27.59,27.47,5,1,5,0.00
2013-11-13,74.6,57.6,45.6,42.0,36.4,32.0,64,47,23,27.55,27.40,7,1,8,0.00
2013-11-14,67.3,53.0,42.6,42.0,36.4,31.0,85,56,30,27.42,27.14,6,1,7,0.00
2013-11-15,62.7,47.6,38.5,43.0,35.3,31.0,94,65,36,27.14,27.02,7,1,9,0.00
2013-11-16,56.5,44.8,37.2,37.0,32.8,31.0,83,64,39,27.21,27.05,9,2,14,0.00
2013-11-17,58.7,45.4,35.7,39.0,35.2,32.0,88,70,41,27.37,27.20,7,2,8,0.00
2013-11-18,57.1,46.2,37.1,42.0,38.6,33.0,91,76,50,27.43,27.34,10,1,12,0.00
2013-11-19,50.7,46.7,43.1,47.0,44.9,40.0,98,93,84,27.37,27.25,6,0,8,1.23
2013-11-20,48.9,47.3,44.3,49.0,47.2,44.0,100,99,98,27.26,27.15,8,1,8,1.35
2013-11-21,52.2,45.7,39.8,44.0,31.3,16.0,100,62,30,27.32,27.17,12,2,26,0.00
2013-11-22,62.3,50.5,39.5,21.0,11.4,4.0,43,21,9,27.37,27.28,18,2,22,0.00
2013-11-23,63.2,47.9,35.2,36.0,23.8,11.0,83,44,17,27.38,27.28,10,1,12,0.00
2013-11-24,54.3,41.4,31.7,39.0,33.6,26.0,96,75,49,27.51,27.38,8,1,8,0.00
2013-11-25,57.6,43.5,33.3,47.0,36.9,32.0,98,80,45,27.60,27.50,8,1,11,0.00
2013-11-26,60.9,46.7,37.5,46.0,38.8,36.0,95,76,41,27.55,27.36,5,1,5,0.00
2013-11-27,62.1,49.4,40.6,38.0,33.8,29.0,80,57,31,27.36,27.20,9,2,11,0.00
2013-11-28,64.5,48.4,40.3,39.0,35.9,32.0,82,64,34,27.39,27.21,8,1,10,0.00
2013-11-29,63.3,47.6,38.1,43.0,37.0,33.0,85,69,36,27.51,27.38,9,2,9,0.00
2013-11-30,63.3,47.4,39.2,45.0,38.1,35.0,90,73,37,27.56,27.48,6,1,8,0.00
2013-12-1,63.9,48.7,37.2,45.0,39.0,33.0,93,72,38,27.62,27.51,6,1,6,0.00
2013-12-2,59.9,48.5,40.0,42.0,39.3,35.0,86,72,43,27.53,27.20,8,1,11,0.00
2013-12-3,48.1,38.0,26.2,44.0,34.4,21.0,99,86,65,27.19,27.06,14,2,14,0.16
2013-12-4,42.8,31.1,24.5,23.0,18.9,14.0,78,60,32,27.26,27.12,9,1,11,0.00
2013-12-5,42.1,28.9,20.6,23.0,15.9,11.0,80,59,31,27.34,27.24,8,2,9,0.00
2013-12-6,36.6,29.0,21.4,29.0,22.0,16.0,97,75,51,27.39,27.10,14,2,15,0.00
2013-12-7,31.2,26.9,18.5,31.0,27.1,21.0,99,97,92,27.38,27.09,9,1,11,0.01
2013-12-8,42.5,24.4,16.1,32.0,22.2,16.0,97,89,59,27.47,27.36,5,2,6,0.14
2013-12-9,45.1,29.3,19.2,31.0,23.4,18.0,93,79,50,27.62,27.43,6,1,8,0.20
2013-12-10,50.4,34.1,21.4,32.0,25.1,18.0,91,71,39,27.61,27.42,5,0,5,0.13
2013-12-11,56.1,38.4,28.0,35.0,26.9,23.0,90,66,34,27.50,27.42,4,0,5,0.01
2013-12-12,59.9,41.9,32.6,32.0,24.7,18.0,71,52,21,27.54,27.44,6,1,7,0.00
2013-12-13,59.7,42.5,29.9,31.0,26.3,21.0,74,55,23,27.57,27.46,6,1,6,0.00
2013-12-14,58.7,42.5,30.9,33.0,27.1,23.0,81,57,28,27.67,27.55,5,0,7,0.00
2013-12-15,65.1,47.2,34.8,35.0,28.4,21.0,76,50,23,27.64,27.53,7,1,7,0.00
2013-12-16,73.5,52.9,41.4,41.0,34.3,26.0,70,51,26,27.55,27.47,5,1,5,0.00
2013-12-17,70.8,54.2,45.8,41.0,31.3,26.0,61,43,19,27.51,27.36,6,1,8,0.00
2013-12-18,62.2,49.8,41.6,41.0,34.2,26.0,80,56,38,27.37,27.01,6,1,6,0.00
2013-12-19,52.9,42.5,34.3,38.0,27.7,16.0,88,58,33,27.16,26.94,10,1,13,0.00
2013-12-20,58.9,42.1,30.9,31.0,20.7,11.0,70,44,15,27.26,27.14,6,1,7,0.00
2013-12-21,61.7,46.0,35.0,41.0,33.8,29.0,86,64,39,27.37,27.24,8,1,8,0.00
2013-12-22,67.5,49.8,38.0,41.0,34.2,28.0,67,56,34,27.57,27.36,5,1,10,0.00
2013-12-23,62.7,47.4,37.5,39.0,34.6,31.0,81,63,32,27.69,27.55,5,1,8,0.00
2013-12-24,73.0,51.6,40.0,42.0,32.2,16.0,81,51,21,27.60,27.51,5,1,6,0.00
2013-12-25,70.3,50.4,38.5,35.0,26.6,16.0,62,41,20,27.60,27.52,5,1,5,0.00
2013-12-26,70.6,50.2,39.0,35.0,28.4,23.0,60,44,22,27.58,27.50,8,1,8,0.00
2013-12-27,63.8,48.1,39.5,40.0,28.8,21.0,62,47,26,27.55,27.40,5,1,5,0.00
2013-12-28,67.9,48.6,35.6,31.0,21.4,16.0,56,36,13,27.43,27.35,8,1,9,0.00
2013-12-29,61.0,47.2,39.5,33.0,23.7,11.0,62,39,23,27.50,27.38,6,1,7,0.00
2013-12-30,63.5,47.8,38.0,32.0,24.8,18.0,53,41,19,27.55,27.48,8,1,8,0.00
2013-12-31,62.1,47.7,39.6,33.0,26.1,21.0,59,44,20,27.55,27.45,5,1,5,0.00
2014-1-1,63.8,48.3,39.2,38.0,31.6,26.0,74,53,31,27.50,27.43,7,1,7,0.00
2014-1-2,66.6,50.5,40.2,41.0,35.1,29.0,74,58,26,27.49,27.37,5,1,6,0.00